createdAt,value
2023-05-21T01:07:45.733Z,101589.47
2023-05-21T01:17:07.287Z,101573.34
2023-05-21T01:19:55.165Z,101589.16
2023-05-21T01:22:33.762Z,101581.75
2023-05-21T01:25:13.016Z,101583.44
2023-05-21T01:27:48.090Z,101576.31
2023-05-21T01:30:25.561Z,101578.03
2023-05-21T01:33:07.269Z,101572.78
2023-05-21T01:35:45.409Z,101580.06
2023-05-21T01:38:24.636Z,101576.31
2023-05-21T01:41:04.256Z,101569.03
2023-05-21T01:43:40.133Z,101575.84
2023-05-21T01:46:17.865Z,101573.78
2023-05-21T01:48:53.470Z,101578.06
2023-05-21T01:51:27.510Z,101564.31
2023-05-21T01:53:59.812Z,101569.75
2023-05-21T01:56:37.622Z,101566.25
2023-05-21T01:59:10.651Z,101553.72
2023-05-21T02:01:43.898Z,101558.13
2023-05-21T02:04:18.794Z,101558.63
2023-05-21T02:06:51.622Z,101560.03
2023-05-21T02:09:24.127Z,101558.50
2023-05-21T02:12:03.530Z,101553.81
2023-05-21T02:14:38.981Z,101557.34
2023-05-21T02:17:13.829Z,101552.97
2023-05-21T02:19:46.334Z,101545.34
2023-05-21T02:22:22.937Z,101544.06
2023-05-21T02:24:57.853Z,101544.41
2023-05-21T02:27:36.500Z,101553.09
2023-05-21T02:30:14.069Z,101550.72
2023-05-21T02:32:50.084Z,101540.44
2023-05-21T02:35:25.198Z,101554.28
2023-05-21T02:37:59.696Z,101552.09
2023-05-21T02:40:42.304Z,101549.38
2023-05-21T02:43:19.270Z,101545.16
2023-05-21T02:45:52.722Z,101547.22
2023-05-21T02:48:27.100Z,101544.00
2023-05-21T02:50:59.871Z,101542.69
2023-05-21T02:53:35.972Z,101533.03
2023-05-21T02:56:08.871Z,101539.28
2023-05-21T02:58:44.926Z,101534.59
2023-05-21T03:01:17.822Z,101530.22
2023-05-21T03:03:52.982Z,101521.09
2023-05-21T03:06:25.339Z,101523.97
2023-05-21T03:09:06.280Z,101528.53
2023-05-21T03:11:38.694Z,101526.34
2023-05-21T03:14:14.140Z,101517.88
2023-05-21T03:16:46.746Z,101521.28
2023-05-21T03:19:19.802Z,101531.59
2023-05-21T03:21:53.333Z,101525.16
2023-05-21T03:24:26.748Z,101522.63
2023-05-21T03:26:59.646Z,101531.06
2023-05-21T03:29:34.990Z,101532.28
2023-05-21T03:32:07.840Z,101537.16
2023-05-21T03:34:41.864Z,101531.94
2023-05-21T03:37:14.112Z,101527.00
2023-05-21T03:39:47.823Z,101534.28
2023-05-21T03:42:20.936Z,101530.38
2023-05-21T03:44:57.061Z,101533.94
2023-05-21T03:47:29.800Z,101535.09
2023-05-21T03:50:02.655Z,101537.81
2023-05-21T03:52:35.458Z,101537.63
2023-05-21T03:55:10.546Z,101539.97
2023-05-21T03:57:46.822Z,101532.16
2023-05-21T04:00:23.410Z,101537.19
2023-05-21T04:02:55.735Z,101531.75
2023-05-21T04:05:28.310Z,101538.00
2023-05-21T04:08:01.055Z,101529.69
2023-05-21T04:10:33.503Z,101542.81
2023-05-21T04:13:05.768Z,101534.66
2023-05-21T04:15:42.214Z,101542.72
2023-05-21T04:18:14.451Z,101551.50
2023-05-21T04:20:47.737Z,101548.78
2023-05-21T04:23:20.141Z,101552.66
2023-05-21T04:26:02.305Z,101548.47
2023-05-21T04:28:35.765Z,101562.09
2023-05-21T04:31:14.867Z,101545.44
2023-05-21T04:34:01.281Z,101556.88
2023-05-21T04:36:34.535Z,101555.88
2023-05-21T04:39:12.731Z,101555.88
2023-05-21T04:41:51.300Z,101562.91
2023-05-21T04:45:16.833Z,101555.69
2023-05-21T04:47:54.271Z,101559.66
2023-05-21T04:50:26.648Z,101561.69
2023-05-21T04:53:00.265Z,101561.34
2023-05-21T04:55:32.619Z,101559.94
2023-05-21T04:58:06.738Z,101567.97
2023-05-21T05:00:39.692Z,101558.59
2023-05-21T05:03:17.621Z,101561.56
2023-05-21T05:06:08.511Z,101562.69
2023-05-21T05:08:51.946Z,101554.34
2023-05-21T05:11:31.594Z,101560.19
2023-05-21T05:14:12.541Z,101557.41
2023-05-21T05:16:49.189Z,101565.53
2023-05-21T05:19:27.417Z,101569.75
2023-05-21T05:22:01.112Z,101571.94
2023-05-21T05:24:34.588Z,101578.94
2023-05-21T05:27:20.416Z,101568.19
2023-05-21T05:29:55.352Z,101569.53
2023-05-21T05:32:31.858Z,101561.09
2023-05-21T05:35:13.716Z,101559.53
2023-05-21T05:37:48.858Z,101563.28
2023-05-21T05:47:12.964Z,101555.03
2023-05-21T05:49:50.903Z,101558.16
2023-05-21T05:52:26.548Z,101562.63
2023-05-21T05:55:02.313Z,101560.13
2023-05-21T05:57:37.751Z,101563.06
2023-05-21T06:00:16.691Z,101554.25
2023-05-21T06:03:03.716Z,101554.47
2023-05-21T06:05:53.316Z,101557.41
2023-05-21T06:08:38.332Z,101551.72
2023-05-21T06:15:26.727Z,101556.50
2023-05-21T06:20:20.223Z,101548.50
2023-05-21T06:22:22.018Z,101545.13
2023-05-21T06:25:11.626Z,101550.72
2023-05-21T06:28:31.544Z,101545.28
2023-05-21T06:40:46.474Z,101547.38
2023-05-21T07:15:41.561Z,101533.34
2023-05-21T07:18:15.747Z,101531.88
2023-05-21T07:20:48.414Z,101543.34
2023-05-21T07:23:24.927Z,101535.94
2023-05-21T07:26:00.420Z,101539.78
2023-05-21T07:29:01.411Z,101536.63
2023-05-21T07:55:07.190Z,101523.56
2023-05-21T07:57:40.116Z,101519.47
2023-05-21T08:00:16.380Z,101515.47
2023-05-21T08:02:49.665Z,101514.53
2023-05-21T08:05:24.348Z,101508.50
2023-05-21T08:07:57.140Z,101514.84
2023-05-21T08:10:31.775Z,101516.00
2023-05-21T08:13:04.687Z,101511.28
2023-05-21T08:15:45.551Z,101512.50
2023-05-21T08:18:24.174Z,101513.88
2023-05-21T08:20:57.168Z,101515.84
2023-05-21T08:23:36.353Z,101513.81
2023-05-21T08:26:12.315Z,101503.03
2023-05-21T08:28:49.438Z,101513.59
2023-05-21T08:31:23.201Z,101509.09
2023-05-21T08:33:58.022Z,101499.13
2023-05-21T08:36:57.259Z,101510.00
2023-05-21T08:39:41.272Z,101507.50
2023-05-21T08:42:42.058Z,101505.69
2023-05-21T08:45:46.701Z,101507.91
2023-05-21T08:48:28.373Z,101506.88
2023-05-21T08:51:30.824Z,101505.19
2023-05-21T08:54:33.663Z,101505.75
2023-05-21T08:57:45.135Z,101508.75
2023-05-21T09:03:43.960Z,101502.97
2023-05-21T09:04:12.199Z,101509.63
2023-05-21T09:07:00.544Z,101498.75
2023-05-21T09:09:48.492Z,101496.47
2023-05-21T09:12:21.412Z,101493.44
2023-05-21T09:14:54.987Z,101489.66
2023-05-21T09:17:32.375Z,101491.72
2023-05-21T09:20:23.634Z,101504.75
2023-05-21T09:23:01.484Z,101502.56
2023-05-21T09:25:35.746Z,101490.13
2023-05-21T09:28:14.742Z,101493.53
2023-05-21T09:30:53.344Z,101489.50
2023-05-21T09:33:35.750Z,101497.28
2023-05-21T09:36:12.621Z,101486.69
2023-05-21T09:38:53.079Z,101493.28
2023-05-21T09:41:38.597Z,101485.94
2023-05-21T09:44:11.489Z,101494.13
2023-05-21T09:46:48.255Z,101493.84
2023-05-21T09:49:45.540Z,101478.31
2023-05-21T09:52:35.205Z,101473.91
2023-05-21T09:55:47.508Z,101482.75
2023-05-21T09:58:44.123Z,101479.44
2023-05-21T10:01:29.682Z,101488.28
2023-05-21T10:04:38.000Z,101468.03
2023-05-21T10:07:30.769Z,101460.22
2023-05-21T10:10:14.870Z,101465.84
2023-05-21T10:12:53.583Z,101462.78
2023-05-21T10:15:35.558Z,101459.47
2023-05-21T10:18:08.552Z,101455.81
2023-05-21T10:20:42.452Z,101457.16
2023-05-21T10:23:18.157Z,101453.28
2023-05-21T10:25:53.710Z,101446.59
2023-05-21T10:28:34.387Z,101439.78
2023-05-21T10:31:08.033Z,101443.06
2023-05-21T10:33:46.505Z,101436.00
2023-05-21T10:36:26.019Z,101434.38
2023-05-21T10:39:05.721Z,101435.28
2023-05-21T10:41:52.401Z,101433.94
2023-05-21T10:44:36.592Z,101426.97
2023-05-21T10:48:05.592Z,101435.34
2023-05-21T10:51:03.537Z,101429.28
2023-05-21T10:53:49.526Z,101423.19
2023-05-21T10:56:29.249Z,101430.59
2023-05-21T10:59:22.567Z,101435.94
2023-05-21T11:02:05.364Z,101418.88
2023-05-21T11:04:42.516Z,101430.03
2023-05-21T11:07:38.118Z,101414.38
2023-05-21T11:10:58.513Z,101410.53
2023-05-21T11:13:53.751Z,101416.13
2023-05-21T11:16:45.073Z,101418.72
2023-05-21T11:19:31.258Z,101426.09
2023-05-21T11:22:20.562Z,101417.59
2023-05-21T11:24:54.677Z,101416.31
2023-05-21T11:30:36.904Z,101405.94
2023-05-21T11:33:48.079Z,101413.69
2023-05-21T11:36:33.434Z,101408.34
2023-05-21T11:39:52.116Z,101404.28
2023-05-21T11:42:44.508Z,101400.41
2023-05-21T11:45:39.002Z,101413.47
2023-05-21T11:48:20.930Z,101400.41
2023-05-21T11:50:59.196Z,101405.16
2023-05-21T11:53:41.093Z,101409.50
2023-05-21T11:56:21.307Z,101404.75
2023-05-21T12:02:13.633Z,101391.75
2023-05-21T12:08:03.677Z,101392.94
2023-05-21T12:10:51.705Z,101382.78
2023-05-21T12:13:37.505Z,101396.69
2023-05-21T12:16:26.262Z,101397.44
2023-05-21T12:19:04.127Z,101395.66
2023-05-21T12:21:42.363Z,101390.63
2023-05-21T12:24:19.206Z,101380.97
2023-05-21T12:27:14.486Z,101377.47
2023-05-21T12:29:53.619Z,101385.19
2023-05-21T12:32:32.367Z,101381.66
2023-05-21T12:35:08.092Z,101381.44
2023-05-21T12:37:42.788Z,101378.06
2023-05-21T12:40:16.791Z,101386.59
2023-05-21T12:42:52.804Z,101380.16
2023-05-21T12:45:29.759Z,101371.31
2023-05-21T12:48:34.237Z,101388.84
2023-05-21T12:51:35.189Z,101386.53
2023-05-21T12:54:17.592Z,101369.38
2023-05-21T12:56:50.239Z,101363.09
2023-05-21T12:59:23.471Z,101366.75
2023-05-21T13:01:57.589Z,101375.06
2023-05-21T13:04:31.196Z,101362.22
2023-05-21T13:07:06.702Z,101374.31
2023-05-21T13:09:39.717Z,101372.94
2023-05-21T13:12:25.564Z,101366.56
2023-05-21T13:18:12.724Z,101372.22
2023-05-21T13:20:49.281Z,101372.81
2023-05-21T13:23:26.516Z,101365.13
2023-05-21T13:26:02.651Z,101362.31
2023-05-21T13:28:44.765Z,101367.41
2023-05-21T13:31:21.411Z,101360.41
2023-05-21T13:33:54.536Z,101365.94
2023-05-21T13:36:32.445Z,101357.56
2023-05-21T13:39:16.889Z,101351.31
2023-05-21T13:41:53.829Z,101347.50
2023-05-21T13:44:36.332Z,101357.56
2023-05-21T13:47:11.010Z,101359.41
2023-05-21T13:49:45.932Z,101358.50
2023-05-21T13:52:19.916Z,101356.09
2023-05-21T13:55:05.433Z,101353.53
2023-05-21T13:57:38.874Z,101351.59
2023-05-21T14:00:16.558Z,101347.50
2023-05-21T14:02:50.848Z,101344.16
2023-05-21T14:05:24.752Z,101342.41
2023-05-21T14:07:58.066Z,101344.38
2023-05-21T14:10:33.838Z,101344.88
2023-05-21T14:13:19.052Z,101348.56
2023-05-21T14:15:53.817Z,101339.06
2023-05-21T14:18:34.612Z,101343.84
2023-05-21T14:21:10.485Z,101349.13
2023-05-21T14:23:43.795Z,101335.72
2023-05-21T14:26:20.370Z,101344.38
2023-05-21T14:28:54.160Z,101336.91
2023-05-21T14:31:28.451Z,101330.31
2023-05-21T14:34:01.009Z,101334.22
2023-05-21T14:36:53.712Z,101344.03
2023-05-21T14:39:30.897Z,101336.59
2023-05-21T14:42:20.718Z,101348.44
2023-05-21T14:45:19.381Z,101352.53
2023-05-21T14:48:36.828Z,101349.41
2023-05-21T14:52:03.366Z,101350.72
2023-05-21T14:55:06.058Z,101342.44
2023-05-21T14:57:51.867Z,101338.19
2023-05-21T15:00:38.088Z,101345.03
2023-05-21T15:03:20.148Z,101344.66
2023-05-21T15:06:00.505Z,101336.50
2023-05-21T15:08:46.556Z,101339.00
2023-05-21T15:11:37.634Z,101336.47
2023-05-21T15:14:30.867Z,101330.56
2023-05-21T15:17:08.354Z,101323.47
2023-05-21T15:19:47.390Z,101326.81
2023-05-21T15:22:49.115Z,101327.59
2023-05-21T15:25:32.825Z,101323.78
2023-05-21T15:28:05.233Z,101324.94
2023-05-21T15:30:48.926Z,101327.13
2023-05-21T15:33:21.469Z,101324.00
2023-05-21T15:36:08.861Z,101329.41
2023-05-21T15:38:41.638Z,101329.94
2023-05-21T15:41:13.984Z,101339.53
2023-05-21T15:43:46.958Z,101327.56
2023-05-21T15:46:24.170Z,101322.78
2023-05-21T15:48:58.670Z,101323.22
2023-05-21T15:51:31.553Z,101326.47
2023-05-21T15:54:04.189Z,101328.31
2023-05-21T15:56:36.481Z,101324.34
2023-05-21T15:59:09.042Z,101323.88
2023-05-21T16:01:44.183Z,101324.22
2023-05-21T16:04:18.392Z,101320.88
2023-05-21T16:06:51.224Z,101336.16
2023-05-21T16:09:28.048Z,101323.28
2023-05-21T16:12:00.206Z,101322.03
2023-05-21T16:14:32.950Z,101320.22
2023-05-21T16:17:38.903Z,101319.88
2023-05-21T16:23:06.881Z,101310.75
2023-05-21T16:25:40.584Z,101312.81
2023-05-21T16:28:16.224Z,101303.66
2023-05-21T16:30:49.954Z,101300.88
2023-05-21T16:33:28.430Z,101311.09
2023-05-21T16:36:01.351Z,101299.81
2023-05-21T16:38:38.802Z,101302.63
2023-05-21T16:41:11.475Z,101308.34
2023-05-21T16:43:47.157Z,101313.53
2023-05-21T16:46:20.867Z,101307.78
2023-05-21T16:48:56.151Z,101306.16
2023-05-21T16:57:16.867Z,101298.09
2023-05-21T16:59:56.127Z,101305.34
2023-05-21T17:02:30.791Z,101304.94
2023-05-21T17:05:07.307Z,101310.53
2023-05-21T17:07:41.522Z,101320.34
2023-05-21T17:10:17.793Z,101328.50
2023-05-21T17:12:54.748Z,101312.31
2023-05-21T17:15:33.603Z,101320.69
2023-05-21T17:18:10.900Z,101316.44
2023-05-21T17:20:48.198Z,101323.78
2023-05-21T17:26:26.745Z,101322.91
2023-05-21T17:29:02.291Z,101322.09
2023-05-21T17:31:50.279Z,101320.66
2023-05-21T17:34:35.409Z,101318.50
2023-05-21T17:40:12.311Z,101320.59
2023-05-21T17:42:56.449Z,101315.09
2023-05-21T17:45:49.884Z,101316.34
2023-05-21T17:48:25.035Z,101310.66
2023-05-21T17:51:12.586Z,101317.72
2023-05-21T17:57:42.429Z,101319.78
2023-05-21T18:00:17.842Z,101314.78
2023-05-21T18:03:00.028Z,101322.13
2023-05-21T18:08:43.829Z,101330.69
2023-05-21T18:37:13.961Z,101343.13
2023-05-21T18:58:04.228Z,101354.84
2023-05-21T19:06:40.273Z,101348.16
2023-05-21T19:42:49.558Z,101385.38
2023-05-21T19:45:29.033Z,101387.75
2023-05-21T19:48:21.669Z,101387.59
2023-05-21T19:50:55.390Z,101388.66
2023-05-21T19:53:33.564Z,101389.00
2023-05-21T19:56:06.749Z,101393.31
2023-05-21T20:01:37.056Z,101394.34
2023-05-21T20:04:10.850Z,101396.47
2023-05-21T20:10:03.502Z,101390.69
2023-05-21T20:12:52.148Z,101381.75
2023-05-21T20:15:31.151Z,101391.25
2023-05-21T20:18:04.229Z,101394.44
2023-05-21T20:20:40.313Z,101385.78
2023-05-21T20:23:15.006Z,101390.66
2023-05-21T20:28:22.871Z,101390.25
2023-05-21T20:31:05.516Z,101386.53
2023-05-21T20:33:46.040Z,101392.09
2023-05-21T21:02:43.552Z,101400.59
2023-05-21T21:05:31.743Z,101396.88
2023-05-21T21:08:37.824Z,101395.41
2023-05-21T21:11:27.030Z,101398.75
2023-05-21T21:14:44.973Z,101408.50
2023-05-21T21:17:35.343Z,101407.03
2023-05-21T21:20:20.707Z,101409.84
2023-05-21T21:22:56.191Z,101412.19
2023-05-21T21:25:31.385Z,101412.03
2023-05-21T21:28:03.712Z,101405.13
2023-05-21T21:30:41.346Z,101408.91
2023-05-21T21:33:15.040Z,101419.84
2023-05-21T21:36:07.224Z,101420.06
2023-05-21T21:38:54.621Z,101420.16
2023-05-21T21:41:35.337Z,101422.47
2023-05-21T21:47:00.926Z,101418.97
2023-05-21T21:49:33.723Z,101413.75
2023-05-21T21:52:20.288Z,101422.84
2023-05-21T21:54:55.870Z,101413.84
2023-05-21T21:57:30.669Z,101419.31
2023-05-21T22:00:03.505Z,101420.41
2023-05-21T22:05:44.240Z,101422.94
2023-05-21T22:08:17.490Z,101413.75
2023-05-21T22:10:50.233Z,101418.13
2023-05-21T22:13:23.189Z,101416.66
2023-05-21T22:15:58.069Z,101427.22
2023-05-21T22:18:41.096Z,101411.91
2023-05-21T22:21:18.865Z,101422.88
2023-05-21T22:23:52.323Z,101415.69
2023-05-21T22:26:29.261Z,101426.84
2023-05-21T22:29:02.404Z,101418.91
2023-05-21T22:31:34.999Z,101409.63
2023-05-21T22:34:10.423Z,101419.13
2023-05-21T22:36:44.485Z,101411.53
2023-05-21T22:39:17.331Z,101414.50
2023-05-21T22:41:49.969Z,101416.84
2023-05-21T22:44:23.034Z,101415.16
2023-05-21T22:47:37.466Z,101413.09
2023-05-21T22:50:14.827Z,101416.25
2023-05-21T22:52:46.926Z,101419.00
2023-05-21T22:55:20.405Z,101417.97
2023-05-21T22:57:53.891Z,101413.97
2023-05-21T23:00:27.113Z,101420.72
2023-05-21T23:02:59.942Z,101424.28
2023-05-21T23:05:35.430Z,101414.03
2023-05-21T23:08:07.847Z,101412.34
2023-05-21T23:10:41.210Z,101413.63
2023-05-21T23:13:15.074Z,101416.56
2023-05-21T23:15:48.989Z,101423.72
2023-05-21T23:18:23.923Z,101425.19
2023-05-21T23:21:07.782Z,101412.78
2023-05-21T23:23:40.206Z,101425.22
2023-05-21T23:26:14.310Z,101416.81
2023-05-21T23:28:53.558Z,101416.59
2023-05-21T23:31:26.462Z,101408.44
2023-05-21T23:34:13.716Z,101409.53
2023-05-21T23:36:49.711Z,101410.16
2023-05-21T23:39:21.926Z,101406.41
2023-05-21T23:41:54.438Z,101399.25
2023-05-21T23:44:28.615Z,101394.22
2023-05-21T23:47:02.700Z,101393.59
2023-05-21T23:49:34.922Z,101396.97
2023-05-21T23:52:13.923Z,101397.19
2023-05-21T23:54:46.166Z,101393.19
2023-05-21T23:57:19.145Z,101391.53
2023-05-21T23:59:52.596Z,101393.44
